Time;durP1;ratioP1;P1;durP2;ratioP2;P2;SDS_P1;SDS_P2;PMS_P1;PMS_P2;Temp;Humidity;BMP_temperature;BMP_pressure;BME280_temperature;BME280_humidity;BME280_pressure;Samples;Min_cycle;Max_cycle;Signal;HPM_P1;HPM_P2
2022/10/17 00:00:11;;;;;;;9.35;7.88;;;;;;;11.97;100.00;101566.13;1023678;28;20776;-88
2022/10/17 00:00:43;;;;;;;12.30;7.85;;;;;;;11.98;100.00;101567.75;1024370;28;20317;-88
2022/10/17 00:01:14;;;;;;;10.13;9.10;;;;;;;11.97;100.00;101563.44;1022667;28;20323;-88
2022/10/17 00:01:46;;;;;;;11.13;8.20;;;;;;;11.98;100.00;101562.41;1020953;28;20315;-89
2022/10/17 00:02:17;;;;;;;9.45;8.00;;;;;;;11.94;100.00;101553.19;1027857;28;20302;-88
2022/10/17 00:02:49;;;;;;;8.95;8.07;;;;;;;11.94;100.00;101555.84;1027575;28;20433;-88
2022/10/17 00:03:21;;;;;;;9.50;8.18;;;;;;;11.93;100.00;101548.06;1024405;28;20310;-88
2022/10/17 00:03:52;;;;;;;9.63;7.88;;;;;;;11.92;100.00;101552.56;1031613;28;20364;-88
2022/10/17 00:04:24;;;;;;;9.48;8.55;;;;;;;11.94;100.00;101550.53;1029891;28;20302;-88
2022/10/17 00:04:55;;;;;;;9.60;8.18;;;;;;;11.94;100.00;101541.69;1030602;28;20309;-88
2022/10/17 00:05:27;;;;;;;8.75;7.65;;;;;;;12.00;100.00;101547.00;1025029;28;20319;-88
2022/10/17 00:06:08;;;;;;;8.93;8.02;;;;;;;11.99;100.00;101544.56;1024265;28;20656;-89
2022/10/17 00:06:40;;;;;;;10.82;8.65;;;;;;;11.97;100.00;101543.94;1022153;28;20773;-89
2022/10/17 00:07:11;;;;;;;10.32;8.15;;;;;;;11.99;100.00;101547.22;1026048;28;20213;-88
2022/10/17 00:07:43;;;;;;;12.60;8.60;;;;;;;11.98;100.00;101535.72;1023848;28;20450;-88
2022/10/17 00:08:16;;;;;;;10.57;8.45;;;;;;;12.02;100.00;101542.28;1028970;28;20493;-88
2022/10/17 00:08:48;;;;;;;10.02;6.80;;;;;;;12.06;100.00;101543.53;1031709;28;20332;-88
2022/10/17 00:09:19;;;;;;;14.38;8.50;;;;;;;12.06;100.00;101543.53;1028475;28;20337;-88
2022/10/17 00:09:51;;;;;;;13.05;8.85;;;;;;;12.04;100.00;101542.91;1026845;28;20388;-88
2022/10/17 00:10:23;;;;;;;13.43;8.25;;;;;;;12.03;100.00;101538.59;1023819;28;20662;-88
2022/10/17 00:11:00;;;;;;;12.05;9.07;;;;;;;12.06;100.00;101537.38;1023016;29;20790;-88
2022/10/17 00:11:31;;;;;;;17.10;8.27;;;;;;;12.06;100.00;101538.19;1023249;29;20295;-88
2022/10/17 00:12:03;;;;;;;9.93;8.75;;;;;;;12.04;100.00;101540.22;1024827;28;20351;-89
2022/10/17 00:12:35;;;;;;;10.60;8.75;;;;;;;12.04;100.00;101545.56;1025259;28;20357;-88
2022/10/17 00:13:07;;;;;;;9.63;8.73;;;;;;;12.06;100.00;101543.53;1025886;28;20417;-88
2022/10/17 00:13:39;;;;;;;9.18;8.25;;;;;;;12.05;100.00;101541.03;1022559;28;20492;-88
2022/10/17 00:14:10;;;;;;;11.40;8.00;;;;;;;12.04;100.00;101540.22;1023846;28;20342;-88
2022/10/17 00:14:42;;;;;;;10.05;8.77;;;;;;;12.09;100.00;101544.16;1023432;28;20302;-89
2022/10/17 00:15:15;;;;;;;12.13;8.57;;;;;;;12.11;100.00;101542.09;1019817;29;20731;-88
2022/10/17 00:15:47;;;;;;;9.15;8.38;;;;;;;12.11;100.00;101544.75;1023641;28;20490;-89
2022/10/17 00:16:27;;;;;;;9.77;8.45;;;;;;;12.10;100.00;101537.78;1023552;29;20382;-88
2022/10/17 00:16:59;;;;;;;10.10;8.80;;;;;;;12.10;100.00;101541.25;1023589;28;20321;-88
2022/10/17 00:17:30;;;;;;;10.65;8.75;;;;;;;12.09;100.00;101542.28;1019465;29;20106;-88
2022/10/17 00:18:02;;;;;;;14.60;9.65;;;;;;;12.10;100.00;101530.59;1025651;28;20340;-88
2022/10/17 00:18:34;;;;;;;10.38;8.18;;;;;;;12.07;100.00;101539.00;1019156;29;20311;-88
2022/10/17 00:19:06;;;;;;;10.68;8.93;;;;;;;12.06;100.00;101535.53;1023950;28;20310;-88
2022/10/17 00:19:37;;;;;;;11.23;8.77;;;;;;;12.05;100.00;101533.03;1028123;28;20305;-88
2022/10/17 00:20:09;;;;;;;9.55;8.55;;;;;;;12.04;100.00;101537.56;1029946;28;20293;-88
2022/10/17 00:20:41;;;;;;;8.52;7.72;;;;;;;12.04;100.00;101534.88;1037272;28;20443;-88
2022/10/17 00:21:19;;;;;;;10.60;8.13;;;;;;;12.02;100.00;101539.63;1032885;28;20796;-89
2022/10/17 00:21:50;;;;;;;10.63;7.68;;;;;;;12.10;100.00;101529.75;1027422;28;20396;-88
2022/10/17 00:22:22;;;;;;;10.02;8.25;;;;;;;12.11;100.00;101534.06;1025691;28;20393;-88
2022/10/17 00:22:56;;;;;;;8.82;7.93;;;;;;;12.09;100.00;101528.94;1026994;28;20291;-88
2022/10/17 00:23:29;;;;;;;9.32;8.43;;;;;;;12.11;100.00;101534.06;1024880;28;20728;-88
2022/10/17 00:24:00;;;;;;;10.77;8.43;;;;;;;12.14;100.00;101531.81;1020391;29;20300;-88
2022/10/17 00:24:32;;;;;;;15.65;8.60;;;;;;;12.13;100.00;101532.84;1027030;28;20310;-88
2022/10/17 00:25:04;;;;;;;11.40;8.77;;;;;;;12.19;100.00;101539.19;1025207;28;20302;-88
2022/10/17 00:25:36;;;;;;;9.90;8.85;;;;;;;12.19;100.00;101536.50;1031228;28;20383;-88
2022/10/17 00:26:07;;;;;;;10.25;7.80;;;;;;;12.23;100.00;101532.38;1024600;28;20379;-88
2022/10/17 00:26:39;;;;;;;10.05;9.15;;;;;;;12.22;100.00;101533.41;1031587;28;20308;-88
2022/10/17 00:27:10;;;;;;;17.33;10.23;;;;;;;12.23;100.00;101529.72;1026101;28;20317;-88
2022/10/17 00:27:43;;;;;;;13.18;9.45;;;;;;;12.22;100.00;101525.41;1028536;28;20836;-88
2022/10/17 00:28:18;;;;;;;9.98;9.07;;;;;;;12.23;100.00;101527.03;1027333;28;20676;-88
2022/10/17 00:28:51;;;;;;;11.20;9.27;;;;;;;12.25;100.00;101524.97;1028976;28;20346;-88
2022/10/17 00:29:23;;;;;;;10.80;9.73;;;;;;;12.26;100.00;101542.66;1027450;28;20397;-88
2022/10/17 00:29:54;;;;;;;10.48;9.45;;;;;;;12.28;100.00;101535.25;1021700;28;20304;-88
2022/10/17 00:30:26;;;;;;;10.27;9.27;;;;;;;12.27;100.00;101530.94;1023545;29;20307;-89
2022/10/17 00:31:00;;;;;;;12.82;9.90;;;;;;;12.28;100.00;101532.56;1026298;28;20376;-88
2022/10/17 00:31:34;;;;;;;11.70;9.38;;;;;;;12.26;100.00;101537.31;1023703;28;20346;-88
2022/10/17 00:32:06;;;;;;;12.02;10.60;;;;;;;12.23;100.00;101543.88;1025357;28;20410;-89
2022/10/17 00:32:37;;;;;;;12.68;9.80;;;;;;;12.30;100.00;101535.84;1028452;28;20381;-88
2022/10/17 00:33:09;;;;;;;11.25;10.10;;;;;;;12.28;100.00;101541.41;1032275;28;20384;-88
2022/10/17 00:33:42;;;;;;;12.93;10.25;;;;;;;12.27;100.00;101539.75;1027501;28;20298;-88
2022/10/17 00:34:13;;;;;;;15.05;10.38;;;;;;;12.26;100.00;101534.63;1031431;28;20348;-88
2022/10/17 00:34:45;;;;;;;11.02;9.70;;;;;;;12.27;100.00;101538.94;1023409;28;20710;-88
2022/10/17 00:35:17;;;;;;;12.70;9.90;;;;;;;12.27;100.00;101544.28;1021739;28;20353;-88
2022/10/17 00:35:48;;;;;;;13.35;9.98;;;;;;;12.25;100.00;101536.47;1023993;28;20340;-88
2022/10/17 00:36:22;;;;;;;11.27;10.18;;;;;;;12.25;100.00;101546.34;1024615;28;20343;-89
2022/10/17 00:36:53;;;;;;;16.77;10.00;;;;;;;12.22;100.00;101546.78;1027982;28;20305;-88
2022/10/17 00:37:25;;;;;;;12.23;10.02;;;;;;;12.23;100.00;101548.41;1028115;28;20816;-88
2022/10/17 00:37:57;;;;;;;12.10;9.45;;;;;;;12.23;100.00;101549.22;1031723;28;20756;-88
2022/10/17 00:38:28;;;;;;;10.75;9.65;;;;;;;12.23;100.00;101545.72;1026090;28;20441;-89
2022/10/17 00:38:59;;;;;;;15.98;10.52;;;;;;;12.21;100.00;101545.13;1026097;28;20702;-89
2022/10/17 00:39:31;;;;;;;13.10;9.65;;;;;;;12.20;100.00;101546.16;1021759;29;20302;-88
2022/10/17 00:40:04;;;;;;;11.32;10.23;;;;;;;12.20;100.00;101538.97;1025910;28;20305;-88
2022/10/17 00:40:35;;;;;;;12.48;9.77;;;;;;;12.18;100.00;101546.38;1030347;28;20319;-88
2022/10/17 00:41:09;;;;;;;13.10;10.98;;;;;;;12.18;100.00;101545.56;1025738;28;20970;-88
2022/10/17 00:41:40;;;;;;;12.90;10.50;;;;;;;12.15;100.00;101544.13;1026093;28;20373;-88
2022/10/17 00:42:12;;;;;;;10.15;9.10;;;;;;;12.16;100.00;101542.28;1023907;28;20327;-88
2022/10/17 00:42:43;;;;;;;10.80;9.35;;;;;;;12.16;100.00;101539.59;1022396;28;20303;-88
2022/10/17 00:43:16;;;;;;;10.73;9.63;;;;;;;12.17;100.00;101535.91;1023543;28;20298;-88
2022/10/17 00:43:48;;;;;;;13.95;8.85;;;;;;;12.16;100.00;101537.75;1026316;28;20405;-88
2022/10/17 00:44:28;;;;;;;12.10;9.40;;;;;;;12.15;100.00;101536.09;1027283;28;20369;-88
2022/10/17 00:45:27;;;;;;;17.45;10.32;;;;;;;12.12;100.00;101535.72;1028165;28;20733;-89
2022/10/17 00:45:58;;;;;;;14.43;8.95;;;;;;;12.15;100.00;101540.63;1035403;28;20069;-88
2022/10/17 00:46:35;;;;;;;9.82;8.80;;;;;;;12.12;100.00;101536.53;1029477;28;20353;-88
2022/10/17 00:47:09;;;;;;;9.85;8.73;;;;;;;12.13;100.00;101537.34;1027507;28;20298;-88
2022/10/17 00:47:44;;;;;;;14.25;9.38;;;;;;;12.14;100.00;101529.13;1024834;28;20801;-88
2022/10/17 00:48:16;;;;;;;11.35;8.57;;;;;;;12.13;100.00;101527.50;1019326;29;20382;-88
2022/10/17 00:48:54;;;;;;;10.30;8.48;;;;;;;12.16;100.00;101521.72;1027231;28;20388;-88
2022/10/17 00:49:28;;;;;;;11.10;8.60;;;;;;;12.14;100.00;101523.78;1023263;28;20299;-88
2022/10/17 00:50:01;;;;;;;10.02;8.93;;;;;;;12.18;100.00;101518.84;1025873;28;20665;-88
2022/10/17 00:50:33;;;;;;;14.63;11.02;;;;;;;12.17;100.00;101519.88;1025458;28;20348;-88
2022/10/17 00:51:06;;;;;;;10.90;9.60;;;;;;;12.16;100.00;101520.91;1027747;28;20302;-88
2022/10/17 00:51:44;;;;;;;11.50;10.50;;;;;;;12.18;100.00;101513.50;1027098;28;20552;-88
2022/10/17 00:52:20;;;;;;;9.60;8.70;;;;;;;12.16;100.00;101510.22;1027042;28;20305;-88
2022/10/17 00:52:52;;;;;;;11.73;8.77;;;;;;;12.14;100.00;101507.75;1025460;28;20879;-88
2022/10/17 00:53:26;;;;;;;14.10;9.90;;;;;;;12.17;100.00;101514.53;1029813;28;20768;-88
2022/10/17 00:53:59;;;;;;;12.48;8.50;;;;;;;12.13;100.00;101510.66;1027069;28;20903;-88
2022/10/17 00:54:36;;;;;;;10.52;9.23;;;;;;;12.15;100.00;101513.91;1023196;28;20307;-88
2022/10/17 00:55:14;;;;;;;11.80;9.48;;;;;;;12.15;100.00;101508.59;1027223;28;20325;-88
2022/10/17 00:55:50;;;;;;;9.68;8.73;;;;;;;12.15;100.00;101509.41;1034253;28;20341;-88
2022/10/17 00:56:21;;;;;;;10.30;9.10;;;;;;;12.14;100.00;101512.28;1030111;28;20861;-88
2022/10/17 00:56:53;;;;;;;10.80;9.70;;;;;;;12.13;100.00;101508.78;1027445;28;20735;-88
2022/10/17 00:57:26;;;;;;;10.80;9.45;;;;;;;12.17;100.00;101511.88;1025392;28;20316;-88
2022/10/17 00:58:00;;;;;;;13.45;9.38;;;;;;;12.16;100.00;101511.03;1030413;28;20779;-88
2022/10/17 00:58:32;;;;;;;11.93;9.77;;;;;;;12.17;100.00;101518.03;1026731;28;20406;-89
2022/10/17 00:59:03;;;;;;;12.73;8.65;;;;;;;12.19;100.00;101510.63;1025191;28;20445;-88
2022/10/17 00:59:38;;;;;;;12.85;10.07;;;;;;;12.16;100.00;101512.88;1027314;28;20298;-88
2022/10/17 01:00:10;;;;;;;10.70;8.93;;;;;;;12.18;100.00;101513.50;1026072;28;20392;-88
2022/10/17 01:00:42;;;;;;;10.15;9.05;;;;;;;12.16;100.00;101510.22;1031575;28;20309;-89
2022/10/17 01:01:14;;;;;;;14.05;9.98;;;;;;;12.14;100.00;101506.94;1027141;28;20779;-88
2022/10/17 01:02:16;;;;;;;14.98;10.65;;;;;;;12.07;100.00;101517.66;1026843;28;20456;-88
2022/10/17 01:02:48;;;;;;;;;;;;;;;12.09;100.00;101510.25;1017323;29;20355;-88
2022/10/17 01:03:20;;;;;;;9.18;8.25;;;;;;;12.10;100.00;101516.41;1021002;28;19923;-88
2022/10/17 01:03:52;;;;;;;12.20;9.52;;;;;;;12.11;100.00;101512.72;1027083;28;20507;-88
2022/10/17 01:04:23;;;;;;;14.88;12.07;;;;;;;12.09;100.00;101518.25;1021853;28;20378;-88
2022/10/17 01:04:58;;;;;;;12.15;10.68;;;;;;;12.09;100.00;101514.78;1025472;28;20318;-88
2022/10/17 01:05:29;;;;;;;12.25;9.55;;;;;;;12.06;100.00;101524.84;1027877;28;20301;-88
2022/10/17 01:06:01;;;;;;;15.02;10.05;;;;;;;12.07;100.00;101523.81;1031194;28;20348;-88
2022/10/17 01:06:33;;;;;;;13.27;9.73;;;;;;;12.06;100.00;101516.81;1024174;28;20302;-89
2022/10/17 01:07:04;;;;;;;12.93;9.10;;;;;;;12.08;100.00;101519.28;1030423;28;20312;-88
2022/10/17 01:07:37;;;;;;;15.48;9.25;;;;;;;12.06;100.00;101526.69;1027108;28;20392;-88
2022/10/17 01:08:10;;;;;;;11.70;10.13;;;;;;;12.01;100.00;101513.94;1024282;28;20839;-88
2022/10/17 01:08:41;;;;;;;12.35;9.70;;;;;;;12.01;100.00;101523.81;1021485;28;20441;-88
2022/10/17 01:09:13;;;;;;;11.38;9.32;;;;;;;12.01;100.00;101519.28;1028707;28;20893;-88
2022/10/17 01:09:46;;;;;;;12.18;9.82;;;;;;;12.00;100.00;101520.31;1026262;28;20364;-88
2022/10/17 01:10:18;;;;;;;11.70;9.43;;;;;;;12.02;100.00;101520.91;1027285;28;20309;-88
2022/10/17 01:11:16;;;;;;;10.20;9.25;;;;;;;12.02;100.00;101517.44;1027654;28;20302;-88
2022/10/17 01:11:55;;;;;;;13.35;9.52;;;;;;;12.01;100.00;101513.94;1034792;28;20398;-89
2022/10/17 01:12:47;;;;;;;11.18;9.68;;;;;;;12.03;100.00;101513.72;1027614;28;20367;-88
2022/10/17 01:13:30;;;;;;;13.20;9.80;;;;;;;11.99;100.00;101516.00;1023786;28;20314;-88
2022/10/17 01:14:05;;;;;;;;;;;;;;;12.00;100.00;101517.63;1020470;28;20333;-88
2022/10/17 01:15:13;;;;;;;8.30;7.43;;;;;;;12.03;100.00;101511.88;1024235;28;19922;-88
2022/10/17 01:15:54;;;;;;;12.63;10.20;;;;;;;12.03;100.00;101517.22;1025862;28;20346;-88
2022/10/17 01:16:28;;;;;;;10.85;9.05;;;;;;;12.04;100.00;101502.84;1021905;28;20330;-88
2022/10/17 01:17:13;;;;;;;11.35;10.25;;;;;;;12.06;100.00;101510.66;1026798;28;20306;-88
2022/10/17 01:17:47;;;;;;;13.95;8.38;;;;;;;12.05;100.00;101509.84;1031821;28;20798;-88
2022/10/17 01:18:30;;;;;;;10.38;9.35;;;;;;;12.05;100.00;101512.53;1037999;28;20300;-88
2022/10/17 01:19:22;;;;;;;11.57;10.38;;;;;;;12.05;100.00;101511.66;1028555;28;20676;-88
2022/10/17 01:20:28;;;;;;;13.80;9.88;;;;;;;12.06;100.00;101516.81;1022034;29;20669;-88
2022/10/17 01:21:21;;;;;;;14.43;9.85;;;;;;;12.09;100.00;101517.44;1028932;28;20381;-88
2022/10/17 01:22:05;;;;;;;11.27;9.55;;;;;;;12.07;100.00;101505.13;1034447;28;20749;-88
2022/10/17 01:22:40;;;;;;;11.38;9.70;;;;;;;12.08;100.00;101513.94;1031900;28;20317;-88
2022/10/17 01:23:50;;;;;;;14.43;10.85;;;;;;;12.03;100.00;101511.88;1033490;28;20363;-88
2022/10/17 01:24:35;;;;;;;11.27;10.10;;;;;;;12.03;100.00;101508.38;1034499;28;20289;-88
2022/10/17 01:25:29;;;;;;;12.15;10.60;;;;;;;12.02;100.00;101517.44;1031250;28;20313;-88
2022/10/17 01:26:16;;;;;;;13.65;9.82;;;;;;;12.00;100.00;101517.63;1029164;28;20796;-88
2022/10/17 01:27:12;;;;;;;10.52;9.43;;;;;;;11.97;100.00;101512.72;1027170;28;20530;-88
2022/10/17 01:27:52;;;;;;;12.07;9.85;;;;;;;11.99;100.00;101515.19;1032131;28;20320;-88
2022/10/17 01:28:54;;;;;;;10.43;8.50;;;;;;;11.99;100.00;101513.34;1031273;28;20423;-88
2022/10/17 01:29:50;;;;;;;13.38;10.27;;;;;;;11.98;100.00;101511.69;1033018;28;20043;-88
2022/10/17 01:30:43;;;;;;;11.23;9.75;;;;;;;12.00;100.00;101512.31;1034095;28;20305;-88
2022/10/17 01:31:15;;;;;;;12.82;9.95;;;;;;;11.98;100.00;101511.69;1028590;28;20878;-88
2022/10/17 01:32:18;;;;;;;11.00;9.93;;;;;;;11.94;100.00;101513.16;1029532;28;20843;-88
2022/10/17 01:32:57;;;;;;;13.05;10.40;;;;;;;11.95;100.00;101509.44;1029059;28;20290;-88
2022/10/17 01:33:48;;;;;;;13.95;10.10;;;;;;;11.96;100.00;101511.09;1025315;28;20434;-89
2022/10/17 01:34:31;;;;;;;15.73;9.77;;;;;;;11.96;100.00;101507.59;1028276;28;20294;-88
2022/10/17 01:35:09;;;;;;;12.35;10.90;;;;;;;11.97;100.00;101512.72;1029514;28;20314;-88
2022/10/17 01:36:08;;;;;;;11.82;9.63;;;;;;;11.98;100.00;101518.88;1025268;28;20338;-88
2022/10/17 01:37:03;;;;;;;17.80;10.27;;;;;;;11.96;100.00;101511.09;1022774;28;20469;-88
2022/10/17 01:37:55;;;;;;;13.15;11.48;;;;;;;11.96;100.00;101511.09;1023979;28;20840;-88
2022/10/17 01:38:48;;;;;;;11.93;10.32;;;;;;;12.02;100.00;101512.91;1031378;28;20389;-88
2022/10/17 01:39:38;;;;;;;12.15;10.00;;;;;;;11.97;100.00;101506.56;1030877;28;20301;-88
2022/10/17 01:40:38;;;;;;;12.70;9.75;;;;;;;11.90;100.00;101509.25;1029863;28;20310;-88
2022/10/17 01:41:24;;;;;;;12.00;10.05;;;;;;;11.93;100.00;101505.34;1022842;28;20312;-88
2022/10/17 01:42:06;;;;;;;12.65;10.68;;;;;;;11.95;100.00;101500.63;1029358;28;20326;-88
2022/10/17 01:42:50;;;;;;;12.30;10.95;;;;;;;11.92;100.00;101503.69;1027922;28;20303;-89
2022/10/17 01:43:25;;;;;;;12.60;10.32;;;;;;;11.89;100.00;101504.13;1030276;28;20314;-88
2022/10/17 01:44:08;;;;;;;12.35;10.35;;;;;;;11.90;100.00;101495.91;1033287;28;20327;-88
2022/10/17 01:45:09;;;;;;;11.75;9.65;;;;;;;11.89;100.00;101494.25;1027012;28;20321;-88
2022/10/17 01:45:52;;;;;;;12.85;11.55;;;;;;;11.86;100.00;101499.22;1020522;28;20316;-88
2022/10/17 01:46:28;;;;;;;12.88;10.07;;;;;;;11.87;100.00;101496.31;1023378;29;20315;-89
2022/10/17 01:47:04;;;;;;;13.18;10.23;;;;;;;11.89;100.00;101496.94;1020773;29;20299;-88
2022/10/17 01:47:37;;;;;;;13.60;9.80;;;;;;;11.88;100.00;101491.81;1025471;28;20324;-88
2022/10/17 01:48:15;;;;;;;11.02;9.88;;;;;;;11.90;100.00;101492.41;1026451;28;20440;-88
2022/10/17 01:48:47;;;;;;;11.63;9.55;;;;;;;11.89;100.00;101488.94;1024605;28;20310;-88
2022/10/17 01:49:22;;;;;;;14.07;10.27;;;;;;;11.91;100.00;101491.38;1031133;28;20758;-89
2022/10/17 01:50:00;;;;;;;12.77;9.93;;;;;;;11.93;100.00;101492.81;1025201;28;20307;-88
2022/10/17 01:50:39;;;;;;;14.80;10.32;;;;;;;11.89;100.00;101478.25;1025765;28;20346;-88
2022/10/17 01:51:27;;;;;;;10.60;9.50;;;;;;;11.90;100.00;101487.91;1031165;28;20376;-88
2022/10/17 01:52:08;;;;;;;11.02;9.77;;;;;;;11.89;100.00;101472.91;1030853;28;20313;-88
2022/10/17 01:52:50;;;;;;;16.70;10.27;;;;;;;11.89;100.00;101485.44;1025526;28;20392;-88
2022/10/17 01:53:46;;;;;;;11.98;9.63;;;;;;;11.90;100.00;101471.88;1027301;28;20126;-88
2022/10/17 01:54:30;;;;;;;10.70;9.60;;;;;;;11.90;100.00;101474.56;1030876;28;20414;-88
2022/10/17 01:55:09;;;;;;;14.18;10.25;;;;;;;11.89;100.00;101478.25;1033655;28;20825;-88
2022/10/17 01:55:44;;;;;;;10.70;8.73;;;;;;;11.90;100.00;101473.72;1031138;28;20305;-88
2022/10/17 01:56:17;;;;;;;14.57;10.60;;;;;;;11.91;100.00;101470.84;1027118;28;20364;-89
2022/10/17 01:56:51;;;;;;;16.83;10.05;;;;;;;11.90;100.00;101473.72;1029711;28;20401;-88
2022/10/17 01:57:37;;;;;;;11.55;10.38;;;;;;;11.86;100.00;101473.34;1019248;29;20295;-88
2022/10/17 01:58:21;;;;;;;11.80;10.60;;;;;;;11.88;100.00;101468.59;1030365;28;20301;-88
2022/10/17 01:58:57;;;;;;;12.73;9.98;;;;;;;11.88;100.00;101460.59;1027136;28;20298;-89
2022/10/17 01:59:35;;;;;;;13.82;9.50;;;;;;;11.88;100.00;101465.94;1031194;28;20714;-89
2022/10/17 02:00:10;;;;;;;12.38;9.45;;;;;;;11.90;100.00;101471.88;1024490;28;20335;-89
2022/10/17 02:00:45;;;;;;;11.15;8.63;;;;;;;11.93;100.00;101467.97;1028478;28;20305;-89
2022/10/17 02:01:17;;;;;;;11.10;9.05;;;;;;;11.92;100.00;101467.16;1030866;28;20420;-88
2022/10/17 02:01:51;;;;;;;10.32;9.13;;;;;;;11.93;100.00;101467.97;1028744;28;20860;-89
2022/10/17 02:02:24;;;;;;;11.85;10.20;;;;;;;11.90;100.00;101469.22;1021197;28;20393;-88
2022/10/17 02:02:58;;;;;;;13.85;9.98;;;;;;;11.90;100.00;101469.22;1027289;28;20302;-89
2022/10/17 02:03:30;;;;;;;13.07;10.60;;;;;;;11.94;100.00;101469.59;1025275;28;20305;-89
2022/10/17 02:04:02;;;;;;;11.48;9.35;;;;;;;11.93;100.00;101468.78;1023852;28;20698;-89
2022/10/17 02:04:35;;;;;;;11.07;9.63;;;;;;;11.89;100.00;101475.56;1027900;28;20302;-89
2022/10/17 02:05:08;;;;;;;11.45;8.93;;;;;;;11.93;100.00;101467.97;1027837;28;20554;-88
2022/10/17 02:05:41;;;;;;;13.25;10.20;;;;;;;11.94;100.00;101465.09;1025487;28;20298;-89
2022/10/17 02:06:13;;;;;;;13.05;10.93;;;;;;;11.96;100.00;101472.88;1021488;29;20309;-89
2022/10/17 02:06:45;;;;;;;12.52;10.52;;;;;;;11.94;100.00;101470.44;1018476;29;20349;-89
2022/10/17 02:07:17;;;;;;;11.45;10.23;;;;;;;11.93;100.00;101474.13;1031405;28;20302;-88
2022/10/17 02:07:48;;;;;;;14.80;9.50;;;;;;;11.94;100.00;101470.44;1027633;28;20660;-88
2022/10/17 02:08:28;;;;;;;11.57;10.25;;;;;;;11.91;100.00;101470.84;1020100;29;20363;-88
2022/10/17 02:09:01;;;;;;;13.43;11.05;;;;;;;11.93;100.00;101463.44;1023942;28;20313;-89
2022/10/17 02:09:33;;;;;;;13.13;10.52;;;;;;;11.93;100.00;101467.97;1025589;28;20043;-88
2022/10/17 02:10:09;;;;;;;11.55;10.32;;;;;;;11.94;100.00;101462.41;1026910;28;20306;-88
2022/10/17 02:10:46;;;;;;;12.27;10.27;;;;;;;11.96;100.00;101470.22;1027494;28;20342;-88
2022/10/17 02:11:20;;;;;;;15.73;11.40;;;;;;;11.93;100.00;101463.44;1027603;28;20400;-88
2022/10/17 02:12:09;;;;;;;10.90;9.80;;;;;;;11.94;100.00;101465.09;1020959;29;20393;-89
2022/10/17 02:12:48;;;;;;;13.90;10.10;;;;;;;11.95;100.00;101458.72;1023888;28;20295;-89
2022/10/17 02:13:30;;;;;;;18.23;11.75;;;;;;;11.96;100.00;101468.38;1023999;28;20665;-88
2022/10/17 02:14:16;;;;;;;11.38;9.25;;;;;;;11.96;100.00;101457.69;1028890;28;20366;-89
2022/10/17 02:15:06;;;;;;;10.50;9.10;;;;;;;12.05;100.00;101459.13;1031084;28;20312;-89
2022/10/17 02:16:02;;;;;;;11.52;9.77;;;;;;;12.07;100.00;101458.91;1032689;28;20308;-88
2022/10/17 02:16:34;;;;;;;12.45;9.18;;;;;;;12.10;100.00;101463.00;1028470;28;20317;-89
2022/10/17 02:17:18;;;;;;;12.27;10.15;;;;;;;12.10;100.00;101460.31;1034256;28;20310;-88
2022/10/17 02:18:10;;;;;;;9.88;8.85;;;;;;;12.06;100.00;101463.44;1031121;28;20853;-89
2022/10/17 02:18:58;;;;;;;12.63;10.10;;;;;;;12.05;100.00;101461.78;1026122;28;20378;-88
2022/10/17 02:19:40;;;;;;;14.20;10.73;;;;;;;12.04;100.00;101462.78;1028524;28;20321;-89
2022/10/17 02:20:23;;;;;;;14.57;9.10;;;;;;;12.04;100.00;101464.63;1025768;28;20801;-88
2022/10/17 02:21:03;;;;;;;13.55;9.85;;;;;;;12.05;100.00;101466.28;1027322;28;20305;-88
2022/10/17 02:22:05;;;;;;;12.80;8.93;;;;;;;11.96;100.00;101460.34;1036236;28;20297;-88
2022/10/17 02:22:50;;;;;;;15.18;9.77;;;;;;;11.95;100.00;101466.72;1028580;28;20389;-89
2022/10/17 02:23:27;;;;;;;12.05;10.85;;;;;;;11.93;100.00;101463.44;1030046;28;20421;-89
2022/10/17 02:24:04;;;;;;;14.45;9.73;;;;;;;11.94;100.00;101464.25;1024036;28;20306;-89
2022/10/17 02:25:07;;;;;;;11.57;10.38;;;;;;;11.95;100.00;101466.72;1028008;28;20320;-88
2022/10/17 02:26:24;;;;;;;11.98;9.27;;;;;;;11.93;100.00;101460.78;1027716;28;20396;-88
2022/10/17 02:27:11;;;;;;;13.43;9.27;;;;;;;11.92;100.00;101453.81;1021626;28;20305;-89
2022/10/17 02:28:03;;;;;;;10.50;7.97;;;;;;;11.92;100.00;101461.00;1033983;28;20289;-88
2022/10/17 02:28:43;;;;;;;13.27;9.23;;;;;;;11.94;100.00;101454.41;1032441;28;20679;-88
2022/10/17 02:29:18;;;;;;;11.32;9.35;;;;;;;11.97;100.00;101458.50;1029506;28;20306;-89
2022/10/17 02:29:59;;;;;;;14.30;9.65;;;;;;;12.00;100.00;101458.91;1028299;28;20094;-88
2022/10/17 02:30:40;;;;;;;11.80;10.07;;;;;;;11.94;100.00;101462.41;1021703;29;20322;-88
2022/10/17 02:31:35;;;;;;;15.65;9.88;;;;;;;11.94;100.00;101454.41;1025383;28;20298;-89
2022/10/17 02:32:15;;;;;;;9.68;8.40;;;;;;;11.97;100.00;101453.16;1021203;28;20047;-88
2022/10/17 02:32:58;;;;;;;10.73;9.52;;;;;;;11.97;100.00;101453.16;1024615;28;20295;-88
2022/10/17 02:33:38;;;;;;;14.52;10.05;;;;;;;11.95;100.00;101456.03;1029371;28;20493;-89
2022/10/17 02:34:20;;;;;;;10.50;9.40;;;;;;;11.97;100.00;101448.66;1024497;28;20298;-89
2022/10/17 02:34:55;;;;;;;11.18;9.75;;;;;;;12.01;100.00;101455.19;1019989;29;20825;-88
2022/10/17 02:35:30;;;;;;;15.35;10.48;;;;;;;12.03;100.00;101447.78;1021212;29;20299;-88
2022/10/17 02:36:11;;;;;;;16.60;11.73;;;;;;;12.04;100.00;101449.44;1024478;28;20298;-88
2022/10/17 02:36:47;;;;;;;11.45;9.75;;;;;;;12.09;100.00;101450.69;1023734;28;20306;-89
2022/10/17 02:37:22;;;;;;;11.30;9.40;;;;;;;12.05;100.00;101445.75;1027006;28;20320;-89
2022/10/17 02:37:54;;;;;;;12.15;9.02;;;;;;;12.05;100.00;101448.44;1034517;28;20308;-88
2022/10/17 02:38:26;;;;;;;11.18;9.45;;;;;;;12.06;100.00;101442.06;1030257;28;20357;-89
2022/10/17 02:39:00;;;;;;;11.38;9.52;;;;;;;12.06;100.00;101446.59;1028935;28;20342;-88
2022/10/17 02:39:33;;;;;;;15.73;10.65;;;;;;;12.10;100.00;101446.97;1025877;28;20389;-88
2022/10/17 02:40:06;;;;;;;11.40;9.68;;;;;;;12.10;100.00;101450.47;1026068;28;20301;-88
2022/10/17 02:40:41;;;;;;;19.05;10.32;;;;;;;12.12;100.00;101447.59;1022387;29;20307;-89
2022/10/17 02:41:15;;;;;;;10.95;9.82;;;;;;;12.12;100.00;101455.59;1028012;28;20826;-88
2022/10/17 02:41:48;;;;;;;11.55;9.90;;;;;;;12.13;100.00;101446.56;1031740;28;20308;-89
2022/10/17 02:42:20;;;;;;;14.88;11.02;;;;;;;12.13;100.00;101443.88;1031686;28;20320;-88
2022/10/17 02:42:53;;;;;;;11.80;10.60;;;;;;;12.11;100.00;101448.63;1033027;28;20301;-88
2022/10/17 02:43:25;;;;;;;14.00;9.60;;;;;;;12.11;100.00;101448.63;1025248;28;20665;-89
2022/10/17 02:43:56;;;;;;;14.88;10.85;;;;;;;12.11;100.00;101448.63;1027001;28;20410;-88
2022/10/17 02:44:33;;;;;;;11.55;10.10;;;;;;;12.10;100.00;101455.81;1035630;28;20304;-88
2022/10/17 02:45:05;;;;;;;14.07;10.73;;;;;;;12.12;100.00;101458.25;1031662;28;20301;-88
2022/10/17 02:45:40;;;;;;;10.80;9.68;;;;;;;12.09;100.00;101456.03;1027272;28;20716;-89
2022/10/17 02:46:21;;;;;;;12.88;10.20;;;;;;;12.13;100.00;101457.22;1021819;29;20310;-88
2022/10/17 02:47:01;;;;;;;12.65;10.95;;;;;;;12.13;100.00;101457.22;1025995;28;20837;-89
2022/10/17 02:47:42;;;;;;;12.90;10.23;;;;;;;12.16;100.00;101462.16;1030298;28;20409;-89
2022/10/17 02:48:17;;;;;;;11.93;9.77;;;;;;;12.21;100.00;101459.66;1023593;28;20315;-88
2022/10/17 02:49:12;;;;;;;13.88;10.13;;;;;;;12.23;100.00;101452.25;1030604;28;20391;-88
2022/10/17 02:49:50;;;;;;;13.57;9.63;;;;;;;12.26;100.00;101449.97;1028658;28;20860;-89
2022/10/17 02:50:29;;;;;;;14.95;10.50;;;;;;;12.36;100.00;101454.88;1026117;28;20309;-88
2022/10/17 02:51:23;;;;;;;10.75;9.65;;;;;;;12.36;100.00;101460.22;1031700;28;20341;-88